Time;durP1;ratioP1;P1;durP2;ratioP2;P2;SDS_P1;SDS_P2;PMS_P1;PMS_P2;Temp;Humidity;BMP_temperature;BMP_pressure;BME280_temperature;BME280_humidity;BME280_pressure;Samples;Min_cycle;Max_cycle;Signal;HPM_P1;HPM_P2
2021/06/26 00:01:13;;;;;;;22.40;16.20;;;;;;;16.23;84.39;101872.38;5109687;28;20357;-58
2021/06/26 00:03:40;;;;;;;27.27;17.55;;;;;;;16.20;84.38;101871.78;5108436;28;20039;-56
2021/06/26 00:06:07;;;;;;;24.60;16.80;;;;;;;16.14;84.97;101872.22;5109570;28;20044;-55
2021/06/26 00:08:34;;;;;;;25.92;16.23;;;;;;;16.11;85.30;101873.28;5109996;28;20039;-51
2021/06/26 00:11:00;;;;;;;23.88;16.88;;;;;;;16.10;84.87;101863.66;5091520;28;20526;-52
2021/06/26 00:13:27;;;;;;;24.88;17.48;;;;;;;16.09;84.92;101863.75;5109475;28;20043;-51
2021/06/26 00:15:54;;;;;;;25.05;17.20;;;;;;;16.04;85.14;101864.91;5109792;28;20122;-58
2021/06/26 00:18:21;;;;;;;23.42;16.60;;;;;;;16.05;85.03;101873.75;5109275;28;20389;-58
2021/06/26 00:20:48;;;;;;;22.25;15.77;;;;;;;16.09;84.55;101863.75;5109273;28;20101;-58
2021/06/26 00:23:15;;;;;;;22.13;15.52;;;;;;;16.10;83.69;101862.78;5109929;28;20055;-58
2021/06/26 00:25:42;;;;;;;23.60;16.40;;;;;;;16.08;83.58;101856.75;5110314;28;20051;-58
2021/06/26 00:28:09;;;;;;;21.65;15.98;;;;;;;16.11;83.66;101857.38;5091466;28;20055;-59
2021/06/26 00:30:36;;;;;;;21.90;15.10;;;;;;;16.12;83.52;101850.28;5109079;28;20044;-59
2021/06/26 00:33:03;;;;;;;22.23;16.08;;;;;;;16.03;83.42;101857.94;5091597;28;20048;-54
2021/06/26 00:35:30;;;;;;;23.23;16.35;;;;;;;15.98;83.69;101853.91;5109437;28;20071;-55
2021/06/26 00:37:57;;;;;;;22.65;15.00;;;;;;;15.96;83.90;101855.84;5091706;28;20064;-52
2021/06/26 00:40:24;;;;;;;21.42;15.75;;;;;;;15.95;83.98;101857.66;5091145;28;20176;-53
2021/06/26 00:42:50;;;;;;;21.85;14.75;;;;;;;15.93;83.25;101858.72;5090688;28;20047;-58
2021/06/26 00:45:18;;;;;;;26.17;16.75;;;;;;;15.78;83.76;101855.31;5108795;28;20114;-58
2021/06/26 00:47:45;;;;;;;23.05;16.60;;;;;;;15.72;84.25;101854.78;5109214;28;20096;-59
2021/06/26 00:50:25;;;;;;;22.65;15.27;;;;;;;15.71;83.89;101860.22;5090794;28;20047;-59
2021/06/26 00:52:52;;;;;;;21.85;15.05;;;;;;;15.69;84.01;101857.66;5091941;28;20039;-58
2021/06/26 00:55:19;;;;;;;22.15;15.07;;;;;;;15.75;83.89;101860.81;5109318;28;20047;-58
2021/06/26 00:57:56;;;;;;;25.63;16.13;;;;;;;15.66;84.29;101852.56;5090196;28;20058;-51
2021/06/26 01:00:26;;;;;;;23.67;16.25;;;;;;;15.64;83.87;101861.63;5109053;28;20052;-52
2021/06/26 01:02:54;;;;;;;24.58;16.02;;;;;;;15.60;84.34;101868.06;5111924;28;20530;-53
2021/06/26 01:05:21;;;;;;;26.48;16.83;;;;;;;15.52;84.97;101863.31;5077753;28;20453;-48
2021/06/26 01:07:48;;;;;;;24.52;16.73;;;;;;;15.48;84.92;101867.97;5113256;28;20483;-53
2021/06/26 01:10:15;;;;;;;24.25;15.77;;;;;;;15.43;84.56;101863.94;5112065;28;20522;-50
2021/06/26 01:12:42;;;;;;;21.88;16.05;;;;;;;15.38;84.70;101865.13;5112843;28;20455;-53
2021/06/26 01:15:10;;;;;;;22.40;16.15;;;;;;;15.42;84.75;101867.53;5112663;28;20055;-49
2021/06/26 01:17:37;;;;;;;24.95;16.88;;;;;;;15.38;84.50;101865.13;5094583;28;20060;-52
2021/06/26 01:20:07;;;;;;;23.60;15.45;;;;;;;15.35;84.37;101873.28;5112108;28;20487;-51
2021/06/26 01:22:41;;;;;;;26.67;17.13;;;;;;;15.45;84.88;101870.00;5113248;28;20498;-53
2021/06/26 01:25:10;;;;;;;24.92;17.55;;;;;;;15.31;85.98;101873.59;5112883;28;20176;-54
2021/06/26 01:27:37;;;;;;;25.90;17.02;;;;;;;15.22;86.47;101861.84;5112513;28;20039;-53
2021/06/26 01:30:04;;;;;;;27.20;17.40;;;;;;;15.18;86.31;101863.00;5111256;28;20349;-52
2021/06/26 01:32:31;;;;;;;26.65;18.13;;;;;;;15.16;86.38;101857.81;5112322;28;20498;-53
2021/06/26 01:34:58;;;;;;;26.20;18.70;;;;;;;15.17;86.79;101862.16;5111141;28;20043;-58
2021/06/26 01:37:25;;;;;;;26.00;18.80;;;;;;;15.20;86.38;101866.38;5112063;28;20048;-53
2021/06/26 01:39:52;;;;;;;27.73;18.00;;;;;;;15.11;86.68;101867.03;5112493;28;20036;-54
2021/06/26 01:42:19;;;;;;;23.95;17.67;;;;;;;15.11;86.18;101857.28;5111676;28;20500;-52
2021/06/26 01:44:45;;;;;;;28.52;18.02;;;;;;;15.10;86.78;101860.03;5112137;28;20062;-54
2021/06/26 01:47:12;;;;;;;26.98;17.23;;;;;;;15.10;86.51;101867.97;5112677;28;20108;-51
2021/06/26 01:49:39;;;;;;;25.95;17.92;;;;;;;15.08;86.17;101864.56;5093723;28;20535;-57
2021/06/26 01:52:09;;;;;;;25.02;17.42;;;;;;;15.04;86.52;101871.91;5094513;28;20040;-58
2021/06/26 01:54:39;;;;;;;26.58;17.55;;;;;;;14.98;86.81;101870.50;5094395;28;20052;-58
2021/06/26 01:57:10;;;;;;;25.50;18.17;;;;;;;14.99;86.79;101872.19;5089991;28;20416;-51
2021/06/26 01:59:37;;;;;;;25.42;17.92;;;;;;;14.97;86.38;101865.28;5091809;28;20818;-54
2021/06/26 02:02:05;;;;;;;26.10;17.83;;;;;;;14.99;86.43;101871.34;5091890;28;20040;-53
2021/06/26 02:04:32;;;;;;;26.48;18.20;;;;;;;14.97;86.10;101876.75;5090649;28;20052;-58
2021/06/26 02:06:59;;;;;;;25.77;18.08;;;;;;;14.96;86.09;101874.22;5090973;28;20063;-58
2021/06/26 02:09:26;;;;;;;23.92;16.35;;;;;;;14.99;86.12;101877.47;5091961;28;20039;-59
2021/06/26 02:11:53;;;;;;;26.98;19.77;;;;;;;14.98;86.46;101872.28;5090956;28;20044;-58
2021/06/26 02:14:20;;;;;;;25.50;17.45;;;;;;;14.94;86.34;101876.94;5091648;28;20073;-58
2021/06/26 02:16:47;;;;;;;29.20;19.42;;;;;;;14.90;86.73;101872.81;5106633;28;20082;-59
2021/06/26 02:19:14;;;;;;;28.48;18.75;;;;;;;14.90;86.34;101875.44;5091333;28;20142;-59
2021/06/26 02:21:40;;;;;;;25.52;17.85;;;;;;;14.92;85.73;101875.38;5091578;28;20044;-58
2021/06/26 02:24:08;;;;;;;24.30;16.90;;;;;;;14.91;85.99;101871.84;5107575;28;20082;-52
2021/06/26 02:26:35;;;;;;;26.02;16.90;;;;;;;14.89;86.02;101879.06;5091016;28;20044;-53
2021/06/26 02:29:01;;;;;;;24.70;18.05;;;;;;;14.86;85.78;101889.84;5091322;28;20040;-58
2021/06/26 02:31:28;;;;;;;27.25;18.23;;;;;;;14.85;86.10;101886.38;5090353;28;20040;-58
2021/06/26 02:33:55;;;;;;;26.60;18.27;;;;;;;14.83;85.96;101879.47;5089136;28;20052;-59
2021/06/26 02:36:22;;;;;;;26.70;17.30;;;;;;;14.86;85.78;101885.41;5090817;28;20052;-56
2021/06/26 02:38:50;;;;;;;25.80;17.38;;;;;;;14.87;85.17;101880.97;5091429;28;20496;-58
2021/06/26 02:41:21;;;;;;;25.00;16.85;;;;;;;14.80;85.69;101877.88;5090553;28;20401;-59
2021/06/26 02:43:51;;;;;;;28.73;17.85;;;;;;;14.73;86.00;101878.41;5107032;28;20040;-52
2021/06/26 02:46:17;;;;;;;24.63;16.90;;;;;;;14.75;85.82;101882.66;5089444;28;20040;-51
2021/06/26 02:48:45;;;;;;;26.52;18.02;;;;;;;14.71;86.03;101875.84;5090823;28;20391;-57
2021/06/26 02:51:12;;;;;;;23.80;16.23;;;;;;;14.73;85.63;101878.41;5091231;28;20713;-57
2021/06/26 02:53:39;;;;;;;23.58;16.27;;;;;;;14.67;85.55;101875.22;5091247;28;20056;-58
2021/06/26 02:56:06;;;;;;;26.35;17.23;;;;;;;14.68;85.94;101876.91;5095161;28;20047;-58
2021/06/26 02:58:33;;;;;;;26.10;17.13;;;;;;;14.59;86.16;101872.19;5110894;28;20085;-52
2021/06/26 03:01:00;;;;;;;24.77;18.73;;;;;;;14.57;86.53;101874.06;5109359;28;20484;-54
2021/06/26 03:03:27;;;;;;;27.52;18.48;;;;;;;14.59;86.78;101882.78;5110453;28;20043;-54
2021/06/26 03:05:54;;;;;;;27.27;16.73;;;;;;;14.52;86.45;101886.78;5109365;28;20055;-53
2021/06/26 03:08:21;;;;;;;24.38;17.40;;;;;;;14.54;86.33;101890.16;5093342;28;20059;-50
2021/06/26 03:10:47;;;;;;;26.40;18.65;;;;;;;14.54;86.76;101896.28;5110941;28;20035;-58
2021/06/26 03:13:15;;;;;;;24.40;17.40;;;;;;;14.54;86.33;101892.81;5110634;28;20504;-58
2021/06/26 03:15:43;;;;;;;26.10;18.08;;;;;;;14.53;86.72;101896.41;5075439;28;20048;-58
2021/06/26 03:18:11;;;;;;;25.30;17.52;;;;;;;14.50;86.89;101889.50;5092112;28;20387;-58
2021/06/26 03:20:38;;;;;;;25.58;17.23;;;;;;;14.52;86.98;101890.25;5110186;28;20043;-58
2021/06/26 03:23:05;;;;;;;24.45;17.05;;;;;;;14.58;86.68;101890.81;5092312;28;20388;-59
2021/06/26 03:25:32;;;;;;;23.73;17.08;;;;;;;14.58;86.62;101889.00;5092549;28;20502;-59
2021/06/26 03:27:58;;;;;;;25.02;17.10;;;;;;;14.56;87.19;101890.06;5110363;28;20081;-58
2021/06/26 03:30:25;;;;;;;26.52;17.58;;;;;;;14.57;87.11;101887.31;5108828;28;20060;-58
2021/06/26 03:32:52;;;;;;;24.67;17.00;;;;;;;14.55;87.68;101891.88;5092072;28;20044;-59
2021/06/26 03:35:19;;;;;;;27.10;17.55;;;;;;;14.59;87.34;101901.31;5074732;28;20047;-58
2021/06/26 03:37:46;;;;;;;26.00;17.98;;;;;;;14.60;87.86;101891.56;5110573;28;20084;-58
2021/06/26 03:40:13;;;;;;;26.80;18.55;;;;;;;14.54;88.04;101891.00;5075764;28;20093;-58
2021/06/26 03:42:40;;;;;;;28.92;18.75;;;;;;;14.58;88.28;101896.94;5109730;28;20051;-52
2021/06/26 03:45:08;;;;;;;27.38;18.30;;;;;;;14.58;88.66;101891.66;5109706;28;20043;-53
2021/06/26 03:47:35;;;;;;;31.02;20.33;;;;;;;14.66;88.61;101888.53;5109966;28;20039;-54
2021/06/26 03:50:04;;;;;;;30.30;19.80;;;;;;;14.67;89.02;101896.38;5091686;28;20075;-53
2021/06/26 03:52:31;;;;;;;28.83;18.83;;;;;;;14.66;88.49;101893.84;5109864;28;20052;-53
2021/06/26 03:54:58;;;;;;;31.35;20.08;;;;;;;14.60;89.15;101900.38;5110137;28;20046;-54
2021/06/26 03:57:24;;;;;;;31.08;18.83;;;;;;;14.69;89.28;101899.75;5109280;28;20055;-47
2021/06/26 03:59:51;;;;;;;34.45;20.75;;;;;;;14.71;89.00;101899.66;5108914;28;20407;-54
2021/06/26 04:02:18;;;;;;;31.52;19.50;;;;;;;14.76;89.42;101891.44;5109808;28;20048;-58
2021/06/26 04:04:45;;;;;;;31.20;20.80;;;;;;;14.82;88.36;101886.56;5108869;28;20050;-59
2021/06/26 04:07:12;;;;;;;32.92;21.73;;;;;;;14.78;88.61;101898.31;5092031;28;20047;-58
2021/06/26 04:09:39;;;;;;;34.20;21.30;;;;;;;14.77;88.61;101885.19;5109839;28;20512;-58
2021/06/26 04:12:06;;;;;;;32.97;20.10;;;;;;;14.81;88.84;101897.28;5108693;28;20513;-50
2021/06/26 04:14:33;;;;;;;31.63;19.92;;;;;;;14.87;88.89;101902.16;5109188;28;20525;-59
2021/06/26 04:17:00;;;;;;;30.17;19.70;;;;;;;14.86;89.04;101901.31;5109430;28;20052;-58
2021/06/26 04:19:26;;;;;;;28.73;19.83;;;;;;;14.94;89.12;101895.47;5108977;28;20051;-58
2021/06/26 04:21:53;;;;;;;31.08;20.40;;;;;;;14.95;88.64;101899.84;5109321;28;20480;-54
2021/06/26 04:24:20;;;;;;;36.97;22.55;;;;;;;14.98;88.77;101889.06;5109809;28;20040;-59
2021/06/26 04:26:47;;;;;;;31.70;20.05;;;;;;;14.96;88.87;101896.25;5108672;28;20044;-53
2021/06/26 04:29:14;;;;;;;31.10;20.17;;;;;;;14.98;89.07;101886.41;5091567;28;20105;-53
2021/06/26 04:31:40;;;;;;;29.50;21.00;;;;;;;14.99;89.81;101890.72;5108697;28;20540;-53
2021/06/26 04:34:07;;;;;;;33.00;20.92;;;;;;;15.06;89.25;101879.72;5108665;28;20522;-52
2021/06/26 04:36:34;;;;;;;32.63;21.83;;;;;;;15.09;89.57;101879.50;5113724;28;20512;-59
2021/06/26 04:39:07;;;;;;;27.33;20.23;;;;;;;15.08;89.28;101889.28;5113201;28;20497;-59
2021/06/26 04:41:37;;;;;;;;;;;;;;;15.14;89.12;101890.66;5113407;28;20140;-58
2021/06/26 04:44:04;;;;;;;32.38;20.45;;;;;;;15.14;88.96;101880.06;5113982;28;19989;-59
2021/06/26 04:46:32;;;;;;;31.67;20.42;;;;;;;15.18;89.20;101887.69;5112396;28;20381;-59
2021/06/26 04:48:59;;;;;;;32.20;20.77;;;;;;;15.21;88.66;101891.94;5112508;28;20043;-58
2021/06/26 04:51:26;;;;;;;33.50;21.40;;;;;;;15.25;89.10;101895.22;5111975;28;20054;-59
2021/06/26 04:53:53;;;;;;;31.95;20.95;;;;;;;15.32;88.88;101893.84;5113974;28;20531;-58
2021/06/26 04:56:20;;;;;;;34.33;20.52;;;;;;;15.33;88.70;101899.03;5112638;28;20146;-59
2021/06/26 04:58:47;;;;;;;34.67;21.00;;;;;;;15.35;88.61;101893.63;5113811;28;20074;-57
2021/06/26 05:01:14;;;;;;;35.05;21.48;;;;;;;15.40;88.74;101893.31;5111859;28;20472;-57
2021/06/26 05:03:41;;;;;;;39.80;22.73;;;;;;;15.44;89.42;101894.81;5112734;28;20471;-58
2021/06/26 05:06:08;;;;;;;33.50;21.63;;;;;;;15.49;88.70;101890.88;5094860;28;20446;-58
2021/06/26 05:08:35;;;;;;;28.73;20.23;;;;;;;15.60;88.11;101884.84;5078644;28;20117;-57
2021/06/26 05:11:02;;;;;;;41.97;24.42;;;;;;;15.58;87.87;101886.72;5112614;28;20043;-58
2021/06/26 05:13:30;;;;;;;48.47;26.45;;;;;;;15.58;88.23;101889.38;5112513;28;20118;-57
2021/06/26 05:15:57;;;;;;;58.63;28.70;;;;;;;15.66;87.74;101892.34;5112402;28;20514;-57
2021/06/26 05:18:27;;;;;;;65.45;30.65;;;;;;;15.65;87.50;101890.66;5112513;28;20422;-57
2021/06/26 05:20:55;;;;;;;62.65;29.55;;;;;;;15.69;87.10;101889.50;5115134;28;20386;-58
2021/06/26 05:23:23;;;;;;;54.20;28.73;;;;;;;15.72;87.46;101885.78;5095916;28;20392;-58
2021/06/26 05:25:50;;;;;;;52.25;29.15;;;;;;;15.83;86.99;101887.72;5112933;28;20594;-58
2021/06/26 05:28:17;;;;;;;48.80;27.95;;;;;;;15.77;87.72;101882.78;5112451;28;20503;-58
2021/06/26 05:30:45;;;;;;;39.78;24.33;;;;;;;15.86;86.55;101883.00;5112619;28;20048;-51
2021/06/26 05:33:12;;;;;;;35.53;24.02;;;;;;;15.92;86.26;101883.53;5094383;28;20556;-52
2021/06/26 05:35:39;;;;;;;35.95;23.80;;;;;;;15.93;86.67;101877.28;5111833;28;20503;-52
2021/06/26 05:38:05;;;;;;;35.58;21.98;;;;;;;15.94;86.56;101885.13;5094995;28;20047;-52
2021/06/26 05:40:32;;;;;;;34.28;23.02;;;;;;;16.11;85.77;101883.06;5111464;28;20568;-52
2021/06/26 05:43:00;;;;;;;35.60;22.30;;;;;;;16.17;85.62;101879.94;5094263;28;20040;-55
2021/06/26 05:45:27;;;;;;;41.45;24.13;;;;;;;16.20;85.14;101895.69;5112400;28;20047;-54
2021/06/26 05:47:54;;;;;;;57.13;29.65;;;;;;;16.22;85.16;101896.41;5075838;28;20040;-50
2021/06/26 05:50:21;;;;;;;65.60;32.58;;;;;;;16.31;85.15;101890.44;5111945;28;20051;-60
2021/06/26 05:52:49;;;;;;;60.45;31.58;;;;;;;16.41;84.47;101889.75;5112178;28;20043;-59
2021/06/26 05:55:17;;;;;;;63.30;31.25;;;;;;;16.41;85.20;101884.44;5112937;28;20046;-59
2021/06/26 05:57:44;;;;;;;52.25;28.48;;;;;;;16.48;84.80;101881.19;5093508;28;20052;-59
2021/06/26 06:00:14;;;;;;;50.58;27.83;;;;;;;16.54;84.09;101885.25;5112234;28;20054;-52
2021/06/26 06:02:42;;;;;;;46.10;26.23;;;;;;;16.67;83.37;101886.00;5093748;28;20055;-53
2021/06/26 06:05:09;;;;;;;43.53;25.23;;;;;;;16.67;84.51;101896.63;5110741;28;20058;-52
2021/06/26 06:07:36;;;;;;;36.72;24.42;;;;;;;16.76;83.61;101888.97;5093867;28;20054;-59
2021/06/26 06:10:04;;;;;;;40.80;25.45;;;;;;;16.81;83.93;101889.44;5112233;28;20113;-60
2021/06/26 06:12:35;;;;;;;35.53;23.23;;;;;;;16.85;84.19;101894.41;5076790;28;20047;-60
2021/06/26 06:15:04;;;;;;;35.10;22.90;;;;;;;16.95;83.33;101897.25;5111729;28;20048;-60
2021/06/26 06:17:31;;;;;;;33.53;21.98;;;;;;;17.16;83.64;101894.75;5094175;28;20057;-60
2021/06/26 06:19:58;;;;;;;31.13;21.75;;;;;;;17.27;81.86;101901.91;5110912;28;20039;-55
2021/06/26 06:22:27;;;;;;;32.75;21.05;;;;;;;17.27;80.84;101904.56;5112086;28;20097;-53
2021/06/26 06:24:54;;;;;;;28.67;20.48;;;;;;;17.35;80.90;101902.16;5111512;28;20093;-54
2021/06/26 06:27:21;;;;;;;28.10;19.92;;;;;;;17.49;80.52;101908.22;5110440;28;20043;-54
2021/06/26 06:29:47;;;;;;;30.10;19.63;;;;;;;17.58;79.15;101903.03;5110822;28;20055;-52
2021/06/26 06:32:14;;;;;;;30.80;19.83;;;;;;;17.68;78.74;101907.63;5111289;28;20052;-55
2021/06/26 06:34:41;;;;;;;28.63;19.13;;;;;;;17.63;78.86;101910.66;5093365;28;20391;-54
2021/06/26 06:37:08;;;;;;;27.25;18.88;;;;;;;17.70;79.21;101905.72;5111928;28;20048;-61
2021/06/26 06:39:35;;;;;;;31.15;19.73;;;;;;;17.86;79.17;101911.50;5112760;28;20559;-61
2021/06/26 06:42:02;;;;;;;30.05;20.25;;;;;;;17.94;79.82;101910.91;5112419;28;20543;-61
2021/06/26 06:44:29;;;;;;;30.15;20.33;;;;;;;18.05;77.77;101904.72;5112841;28;20043;-61
2021/06/26 06:46:55;;;;;;;27.17;18.75;;;;;;;18.18;77.69;101909.94;5094012;28;20084;-61
2021/06/26 06:49:22;;;;;;;28.00;18.48;;;;;;;18.30;76.96;101914.25;5112180;28;20047;-61
2021/06/26 06:51:53;;;;;;;27.42;18.58;;;;;;;18.45;77.51;101911.31;5111889;28;20461;-60
2021/06/26 06:54:19;;;;;;;27.65;18.88;;;;;;;18.53;76.21;101914.22;5113716;28;20051;-60
2021/06/26 06:56:46;;;;;;;24.75;18.05;;;;;;;18.66;74.74;101906.03;5111324;28;20051;-56
2021/06/26 06:59:13;;;;;;;23.73;17.13;;;;;;;18.81;74.59;101914.56;5113026;28;20052;-61
2021/06/26 07:01:40;;;;;;;26.80;16.83;;;;;;;18.80;73.80;101911.06;5114213;28;20050;-61
2021/06/26 07:04:08;;;;;;;26.40;18.13;;;;;;;18.91;74.57;101918.22;5111977;28;20058;-55
2021/06/26 07:06:34;;;;;;;26.48;17.77;;;;;;;19.06;74.11;101916.03;5111456;28;20050;-55
2021/06/26 07:09:01;;;;;;;24.23;17.75;;;;;;;19.22;73.11;101908.47;5111077;28;20075;-56
2021/06/26 07:11:28;;;;;;;22.75;16.63;;;;;;;19.36;72.77;101917.06;5112826;28;20421;-61
2021/06/26 07:13:55;;;;;;;25.30;17.45;;;;;;;19.45;73.49;101915.44;5114882;28;20078;-62
2021/06/26 07:16:22;;;;;;;23.05;17.15;;;;;;;19.62;71.22;101916.66;5114704;28;20052;-61
2021/06/26 07:18:49;;;;;;;23.00;17.02;;;;;;;19.72;71.56;101912.22;5096530;28;20544;-61
2021/06/26 07:21:15;;;;;;;22.65;16.30;;;;;;;19.89;71.07;101911.59;5114552;28;20085;-61
2021/06/26 07:23:42;;;;;;;20.83;16.23;;;;;;;20.16;71.01;101910.13;5094583;28;20044;-56
2021/06/26 07:26:09;;;;;;;23.20;16.52;;;;;;;20.33;71.00;101905.94;5108027;28;20055;-57
2021/06/26 07:28:36;;;;;;;24.15;16.55;;;;;;;20.47;69.39;101904.69;5109610;28;20040;-56
2021/06/26 07:31:02;;;;;;;22.40;15.90;;;;;;;20.57;68.07;101907.34;5111057;28;20054;-62
2021/06/26 07:33:29;;;;;;;23.35;16.15;;;;;;;20.72;67.55;101905.16;5112731;28;20380;-57
2021/06/26 07:35:56;;;;;;;20.17;14.90;;;;;;;20.91;66.76;101904.28;5080389;28;20052;-57
2021/06/26 07:38:23;;;;;;;21.92;15.18;;;;;;;21.00;66.34;101908.78;5090266;28;20449;-56
2021/06/26 07:40:50;;;;;;;22.20;16.33;;;;;;;21.07;66.43;101904.53;5111786;28;20081;-60
2021/06/26 07:43:17;;;;;;;21.20;15.18;;;;;;;21.26;66.98;101906.34;5112431;28;20499;-56
2021/06/26 07:45:44;;;;;;;18.40;14.57;;;;;;;21.36;65.28;101898.28;5110740;28;20051;-55
2021/06/26 07:48:11;;;;;;;19.40;14.38;;;;;;;21.59;64.32;101906.00;5108555;28;20087;-58
2021/06/26 07:50:38;;;;;;;20.25;15.05;;;;;;;21.73;63.63;101901.97;5109244;28;20445;-61
2021/06/26 07:53:05;;;;;;;18.75;12.63;;;;;;;21.99;63.00;101903.97;5114064;28;20044;-61
2021/06/26 07:55:33;;;;;;;19.83;14.40;;;;;;;22.29;60.97;101892.94;5095738;28;20062;-62
2021/06/26 07:58:01;;;;;;;19.75;14.43;;;;;;;22.21;60.19;101892.84;5113991;28;20422;-62
2021/06/26 08:00:28;;;;;;;18.17;13.70;;;;;;;22.33;59.00;101895.28;5111422;28;20050;-57
2021/06/26 08:02:55;;;;;;;20.08;14.35;;;;;;;22.48;60.02;101891.09;5109657;28;20067;-57
2021/06/26 08:05:22;;;;;;;18.60;12.63;;;;;;;22.62;58.56;101887.06;5092249;28;20067;-57
2021/06/26 08:07:52;;;;;;;17.05;11.52;;;;;;;22.65;57.52;101881.41;5088708;28;20470;-57
2021/06/26 08:10:19;;;;;;;18.30;12.52;;;;;;;22.94;57.25;101880.28;5089550;28;20062;-58
2021/06/26 08:12:46;;;;;;;16.15;11.73;;;;;;;23.27;55.97;101875.16;5111349;28;20111;-62
2021/06/26 08:15:13;;;;;;;17.20;12.32;;;;;;;23.35;54.60;101883.25;5109673;28;20150;-57
2021/06/26 08:17:40;;;;;;;17.90;11.95;;;;;;;23.43;55.64;101885.13;5107086;28;20620;-57
2021/06/26 08:20:07;;;;;;;16.77;12.30;;;;;;;23.47;54.27;101883.81;5110797;28;20431;-62
2021/06/26 08:22:34;;;;;;;16.10;12.13;;;;;;;23.62;53.39;101878.69;5108005;28;20044;-56
2021/06/26 08:25:01;;;;;;;15.82;12.07;;;;;;;23.83;53.10;101877.41;5092554;28;20048;-61
2021/06/26 08:27:28;;;;;;;20.13;13.18;;;;;;;24.00;53.75;101878.34;5111015;28;20044;-62
2021/06/26 08:29:54;;;;;;;14.48;11.65;;;;;;;24.14;52.76;101878.53;5104622;28;20043;-57
2021/06/26 08:32:21;;;;;;;15.52;10.27;;;;;;;24.30;52.81;101868.84;5108182;28;20040;-57
2021/06/26 08:34:48;;;;;;;15.93;11.45;;;;;;;24.35;50.66;101871.88;5109132;28;20044;-56
2021/06/26 08:37:32;;;;;;;14.80;11.45;;;;;;;24.34;50.05;101864.81;5090331;28;20047;-58
2021/06/26 08:39:59;;;;;;;14.63;10.85;;;;;;;24.42;51.17;101872.88;5106848;28;20408;-58
2021/06/26 08:42:26;;;;;;;18.73;12.55;;;;;;;24.72;50.60;101864.31;5103227;28;20077;-58
2021/06/26 08:44:59;;;;;;;17.15;11.95;;;;;;;24.82;50.74;101865.00;5102191;28;20534;-58
2021/06/26 08:47:26;;;;;;;15.75;11.48;;;;;;;25.00;48.30;101869.34;5106061;28;20058;-57
2021/06/26 08:49:53;;;;;;;15.70;11.43;;;;;;;25.09;49.27;101865.66;5100774;28;20844;-57
2021/06/26 08:52:21;;;;;;;15.77;10.60;;;;;;;25.25;47.96;101862.06;5096581;28;20058;-58
2021/06/26 08:54:52;;;;;;;15.00;10.98;;;;;;;25.34;47.28;101871.81;5101723;28;20040;-58
2021/06/26 08:57:46;;;;;;;16.90;9.75;;;;;;;25.40;47.75;101871.13;5086271;28;20055;-62
2021/06/26 09:00:21;;;;;;;13.23;10.07;;;;;;;25.60;47.09;101866.16;5089192;28;20067;-62
2021/06/26 09:02:48;;;;;;;14.95;9.95;;;;;;;25.83;47.24;101880.72;5101942;28;20046;-62
2021/06/26 09:05:29;;;;;;;13.40;10.27;;;;;;;26.13;46.97;101876.38;5084359;28;20472;-63
2021/06/26 09:08:17;;;;;;;16.15;10.30;;;;;;;26.02;47.64;101874.91;5103663;28;20495;-61
2021/06/26 09:10:46;;;;;;;16.05;11.15;;;;;;;26.05;46.06;101873.72;5102631;28;20081;-56
2021/06/26 09:13:24;;;;;;;14.02;10.40;;;;;;;26.09;44.36;101866.97;5101380;28;21056;-57
2021/06/26 09:16:08;;;;;;;13.52;9.95;;;;;;;26.26;45.80;101867.66;5101565;28;20415;-62
2021/06/26 09:18:45;;;;;;;13.40;9.73;;;;;;;26.42;45.26;101864.03;5102580;28;20058;-57
2021/06/26 09:21:17;;;;;;;16.88;10.52;;;;;;;26.44;45.65;101864.69;5083788;28;20051;-61
2021/06/26 09:23:44;;;;;;;14.27;10.18;;;;;;;26.60;44.49;101861.00;5110460;28;20054;-62
2021/06/26 09:26:11;;;;;;;15.85;11.38;;;;;;;26.61;44.91;101866.25;5104298;28;20048;-61
2021/06/26 09:28:39;;;;;;;14.82;11.75;;;;;;;26.95;44.28;101864.91;5089459;28;20048;-56
2021/06/26 09:31:21;;;;;;;15.68;11.82;;;;;;;26.91;44.00;101863.63;5087977;28;20415;-57
2021/06/26 09:33:59;;;;;;;13.82;10.25;;;;;;;27.24;43.23;101863.28;5108968;28;20123;-57
2021/06/26 09:36:31;;;;;;;13.65;10.27;;;;;;;26.95;43.79;101864.09;5107553;28;20044;-62
2021/06/26 09:39:00;;;;;;;13.38;10.45;;;;;;;27.23;43.16;101875.09;5112124;28;20476;-62
2021/06/26 09:41:28;;;;;;;19.98;11.57;;;;;;;27.46;43.05;101877.72;5112178;28;20048;-62
2021/06/26 09:43:55;;;;;;;13.77;10.25;;;;;;;27.57;41.09;101867.47;5112285;28;20048;-63
2021/06/26 09:46:22;;;;;;;15.23;11.10;;;;;;;27.69;41.27;101875.94;5111752;28;20495;-62
2021/06/26 09:48:55;;;;;;;15.85;10.43;;;;;;;27.78;41.25;101872.09;5112486;28;20051;-57
2021/06/26 09:51:25;;;;;;;12.40;9.38;;;;;;;27.60;41.32;101876.03;5112305;28;20058;-63
2021/06/26 09:53:56;;;;;;;13.65;10.38;;;;;;;27.31;40.58;101883.09;5112594;28;20043;-64
2021/06/26 09:56:23;;;;;;;18.42;10.38;;;;;;;27.29;40.21;101876.22;5111475;28;20535;-63
2021/06/26 09:58:54;;;;;;;13.52;9.52;;;;;;;27.32;41.10;101881.22;5112519;28;20073;-57
2021/06/26 10:01:21;;;;;;;13.18;9.60;;;;;;;27.39;40.87;101881.34;5111310;28;20043;-57
2021/06/26 10:03:49;;;;;;;16.05;10.18;;;;;;;27.41;41.84;101882.03;5112108;28;20075;-59
2021/06/26 10:06:17;;;;;;;14.45;10.27;;;;;;;27.55;40.09;101881.16;5110586;28;20043;-63
2021/06/26 10:08:45;;;;;;;13.48;9.90;;;;;;;27.66;40.71;101877.13;5111763;28;20044;-58
2021/06/26 10:11:12;;;;;;;13.52;10.00;;;;;;;28.00;40.49;101867.59;5093905;28;20142;-57
2021/06/26 10:13:43;;;;;;;14.82;11.02;;;;;;;28.00;39.44;101873.00;5112254;28;20059;-58
2021/06/26 10:16:10;;;;;;;14.27;10.95;;;;;;;27.63;40.59;101866.72;5110478;28;20048;-59
2021/06/26 10:18:39;;;;;;;14.30;11.05;;;;;;;27.85;38.98;101864.06;5111743;28;20069;-58
2021/06/26 10:21:06;;;;;;;13.60;10.32;;;;;;;28.16;39.61;101863.81;5111071;28;20047;-59
2021/06/26 10:23:34;;;;;;;14.02;10.27;;;;;;;27.66;40.04;101861.78;5112398;28;20066;-63
2021/06/26 10:26:01;;;;;;;15.38;10.10;;;;;;;27.93;40.94;101866.66;5109644;28;20077;-57
2021/06/26 10:28:28;;;;;;;14.48;10.45;;;;;;;27.95;41.50;101865.44;5092448;28;20051;-57
2021/06/26 10:31:06;;;;;;;15.88;11.00;;;;;;;27.99;39.71;101863.16;5110515;28;20050;-57
2021/06/26 10:33:33;;;;;;;15.45;11.10;;;;;;;27.67;40.25;101857.22;5109845;28;20150;-63
2021/06/26 10:36:01;;;;;;;15.50;12.00;;;;;;;27.62;39.76;101856.94;5110564;28;20046;-63
2021/06/26 10:38:42;;;;;;;15.75;11.80;;;;;;;27.77;40.32;101863.16;5111382;28;20414;-57
2021/06/26 10:41:19;;;;;;;16.15;11.45;;;;;;;27.93;40.05;101863.94;5110827;28;20507;-62
2021/06/26 10:44:05;;;;;;;14.50;11.63;;;;;;;27.76;38.54;101869.59;5110907;28;20051;-62
2021/06/26 10:46:32;;;;;;;15.30;11.65;;;;;;;27.89;38.34;101859.97;5092604;28;20839;-58
2021/06/26 10:49:05;;;;;;;14.27;11.55;;;;;;;28.06;38.75;101860.56;5092293;28;20375;-58
2021/06/26 10:51:34;;;;;;;16.02;12.90;;;;;;;27.93;38.38;101855.84;5110761;28;20537;-63
2021/06/26 10:54:22;;;;;;;14.63;11.35;;;;;;;27.86;40.59;101854.94;5110855;28;20534;-58
2021/06/26 10:56:50;;;;;;;16.10;11.85;;;;;;;27.62;39.24;101848.84;5091470;28;20059;-57
2021/06/26 10:59:19;;;;;;;14.07;11.57;;;;;;;27.68;39.31;101856.19;5110918;28;20511;-63
2021/06/26 11:02:00;;;;;;;16.85;11.85;;;;;;;27.58;39.91;101852.94;5109810;28;20055;-58
2021/06/26 11:04:28;;;;;;;18.42;12.50;;;;;;;27.61;38.46;101848.00;5108600;28;20100;-57
2021/06/26 11:07:09;;;;;;;17.77;11.90;;;;;;;27.81;38.67;101850.94;5110505;28;20951;-58
2021/06/26 11:09:38;;;;;;;16.17;12.50;;;;;;;28.06;38.73;101850.63;5096061;27;20047;-63
2021/06/26 11:12:08;;;;;;;14.20;11.32;;;;;;;28.24;38.48;101841.22;5109850;28;20043;-64
2021/06/26 11:14:35;;;;;;;14.35;10.98;;;;;;;28.52;38.85;101849.34;5109891;28;20059;-63